createdAt,value
2023-02-02T00:04:55.206Z,4.03
2023-02-02T00:10:00.180Z,3.50
2023-02-02T00:15:06.672Z,3.03
2023-02-02T00:20:10.408Z,3.55
2023-02-02T00:30:38.571Z,3.35
2023-02-02T00:36:34.406Z,3.00
2023-02-02T00:41:36.922Z,3.30
2023-02-02T00:46:42.552Z,3.53
2023-02-02T00:51:49.043Z,2.53
2023-02-02T00:56:52.633Z,2.70
2023-02-02T01:01:56.139Z,2.97
2023-02-02T01:07:11.913Z,2.40
2023-02-02T01:12:47.836Z,2.38
2023-02-02T01:17:50.421Z,2.20
2023-02-02T01:22:54.211Z,2.70
2023-02-02T01:27:56.661Z,2.53
2023-02-02T01:32:59.158Z,2.55
2023-02-02T01:38:01.738Z,3.00
2023-02-02T01:43:26.170Z,2.90
2023-02-02T01:48:33.158Z,2.83
2023-02-02T01:53:40.615Z,3.00
2023-02-02T01:58:53.171Z,1.77
2023-02-02T02:03:59.782Z,2.85
2023-02-02T02:09:11.372Z,2.60
2023-02-02T02:14:34.770Z,2.35
2023-02-02T02:20:48.974Z,3.33
2023-02-02T02:26:39.806Z,2.38
2023-02-02T02:32:19.409Z,2.30
2023-02-02T02:37:58.607Z,3.03
2023-02-02T02:43:20.864Z,2.75
2023-02-02T02:48:46.000Z,2.60
2023-02-02T02:53:51.880Z,2.40
2023-02-02T02:59:36.546Z,3.17
2023-02-02T03:04:51.973Z,2.95
2023-02-02T03:09:59.217Z,2.22
2023-02-02T03:15:06.010Z,2.38
2023-02-02T03:20:09.708Z,2.40
2023-02-02T03:25:12.187Z,3.05
2023-02-02T03:30:14.902Z,2.30
2023-02-02T03:35:17.592Z,2.75
2023-02-02T03:40:22.132Z,2.30
2023-02-02T03:45:30.242Z,2.13
2023-02-02T03:50:33.060Z,2.38
2023-02-02T03:55:35.553Z,2.30
2023-02-02T04:00:42.419Z,2.42
2023-02-02T04:05:49.910Z,2.17
2023-02-02T04:11:08.071Z,2.25
2023-02-02T04:16:15.453Z,2.60
2023-02-02T04:21:19.079Z,3.78
2023-02-02T04:26:21.490Z,3.58
2023-02-02T04:31:30.030Z,6.85
2023-02-02T04:36:32.379Z,6.07
2023-02-02T04:41:35.153Z,4.15
2023-02-02T04:46:37.432Z,4.07
2023-02-02T04:51:40.696Z,3.65
2023-02-02T04:56:43.056Z,8.52
2023-02-02T05:01:58.779Z,5.72
2023-02-02T05:07:25.140Z,4.53
2023-02-02T05:12:39.142Z,5.82
2023-02-02T05:17:42.465Z,5.82
2023-02-02T05:22:51.203Z,4.20
2023-02-02T05:27:54.591Z,6.05
2023-02-02T05:45:38.561Z,8.45
2023-02-02T05:51:23.234Z,8.75
2023-02-02T05:57:21.432Z,8.60
2023-02-02T06:09:09.064Z,5.15
2023-02-02T06:15:50.410Z,26.02
2023-02-02T06:26:23.226Z,5.85
2023-02-02T06:31:27.204Z,5.55
2023-02-02T06:36:29.803Z,6.65
2023-02-02T06:41:32.592Z,4.35
2023-02-02T06:47:50.062Z,4.35
2023-02-02T06:53:12.776Z,3.15
2023-02-02T06:58:38.186Z,8.30
2023-02-02T07:03:43.838Z,3.63
2023-02-02T07:09:00.938Z,4.63
2023-02-02T07:14:05.565Z,7.93
2023-02-02T07:31:55.526Z,3.00
2023-02-02T08:15:15.225Z,3.30
2023-02-02T08:20:17.863Z,3.33
2023-02-02T08:25:21.951Z,3.50
2023-02-02T08:56:18.679Z,3.80
2023-02-02T09:02:28.969Z,5.45
2023-02-02T09:13:31.790Z,2.70
2023-02-02T09:18:58.104Z,2.88
2023-02-02T09:31:05.587Z,2.92
2023-02-02T10:02:23.283Z,10.10
2023-02-02T10:46:15.913Z,14.18
2023-02-02T10:51:24.825Z,12.85
2023-02-02T10:56:38.895Z,5.40
2023-02-02T11:01:43.327Z,3.38
2023-02-02T11:06:52.200Z,2.78
2023-02-02T11:12:01.474Z,5.45
2023-02-02T11:17:05.601Z,6.00
2023-02-02T11:22:25.416Z,4.43
2023-02-02T11:27:31.721Z,4.95
2023-02-02T11:32:34.936Z,22.08
2023-02-02T11:37:38.820Z,14.13
2023-02-02T11:42:47.141Z,7.78
2023-02-02T11:47:51.000Z,16.70
2023-02-02T11:52:55.726Z,62.90
2023-02-02T11:58:19.807Z,15.85
2023-02-02T12:03:38.616Z,7.75
2023-02-02T12:08:41.014Z,26.48
2023-02-02T12:13:52.225Z,25.13
2023-02-02T12:18:57.506Z,27.65
2023-02-02T12:24:17.146Z,16.00
2023-02-02T12:29:40.688Z,14.45
2023-02-02T12:34:53.108Z,14.38
2023-02-02T12:40:40.223Z,18.40
2023-02-02T12:45:46.767Z,8.55
2023-02-02T12:51:14.789Z,4.28
2023-02-02T12:56:51.980Z,9.45
2023-02-02T13:02:05.621Z,22.85
2023-02-02T13:07:39.228Z,6.22
2023-02-02T13:12:45.553Z,13.07
2023-02-02T13:17:59.449Z,7.78
2023-02-02T13:33:17.752Z,18.40
2023-02-02T13:38:30.596Z,4.22
2023-02-02T13:43:45.643Z,18.10
2023-02-02T13:48:58.598Z,6.13
2023-02-02T13:54:22.794Z,3.97
2023-02-02T13:59:45.935Z,5.45
2023-02-02T14:04:56.935Z,8.53
2023-02-02T14:09:59.520Z,6.30
2023-02-02T14:15:02.197Z,5.60
2023-02-02T14:20:08.881Z,4.03
2023-02-02T14:25:29.479Z,8.65
2023-02-02T14:30:34.816Z,13.48
2023-02-02T14:35:46.401Z,7.07
2023-02-02T14:40:57.318Z,4.85
2023-02-02T14:46:14.979Z,10.73
2023-02-02T14:51:27.066Z,11.52
2023-02-02T14:56:52.103Z,3.55
2023-02-02T15:02:01.021Z,5.70
2023-02-02T15:07:25.427Z,3.35
2023-02-02T15:12:34.180Z,8.90
2023-02-02T15:17:44.525Z,4.90
2023-02-02T15:23:19.417Z,3.67
2023-02-02T15:28:52.172Z,13.95
2023-02-02T15:33:59.857Z,4.93
2023-02-02T15:39:08.739Z,8.93
2023-02-02T15:44:23.341Z,11.57
2023-02-02T15:49:34.636Z,6.43
2023-02-02T15:54:38.946Z,9.97
2023-02-02T15:59:41.532Z,15.07
2023-02-02T16:04:44.080Z,14.45
2023-02-02T16:09:49.471Z,6.80
2023-02-02T16:14:54.639Z,10.05
2023-02-02T16:20:14.977Z,16.63
2023-02-02T16:25:19.836Z,15.32
2023-02-02T16:30:29.787Z,13.50
2023-02-02T16:35:37.715Z,6.72
2023-02-02T16:40:41.527Z,8.85
2023-02-02T16:51:02.533Z,13.55
2023-02-02T16:56:05.858Z,32.33
2023-02-02T17:01:15.892Z,21.33
2023-02-02T17:06:28.416Z,8.82
2023-02-02T17:11:31.191Z,12.07
2023-02-02T17:16:33.717Z,9.50
2023-02-02T17:21:36.087Z,16.27
2023-02-02T17:26:38.455Z,17.77
2023-02-02T17:31:41.476Z,17.67
2023-02-02T17:36:44.432Z,11.87
2023-02-02T17:41:47.539Z,10.93
2023-02-02T17:46:50.266Z,9.43
2023-02-02T17:51:52.701Z,13.13
2023-02-02T17:56:55.204Z,8.75
2023-02-02T18:01:57.898Z,9.35
2023-02-02T18:07:00.178Z,13.52
2023-02-02T18:12:02.582Z,19.50
2023-02-02T18:17:05.102Z,26.63
2023-02-02T18:22:07.584Z,39.60
2023-02-02T18:27:09.901Z,28.52
2023-02-02T18:32:15.232Z,28.70
2023-02-02T18:37:18.292Z,32.40
2023-02-02T18:42:20.831Z,26.75
2023-02-02T18:47:23.607Z,30.45
2023-02-02T18:52:26.161Z,22.87
2023-02-02T18:57:31.378Z,17.73
2023-02-02T19:02:36.736Z,16.00
2023-02-02T19:07:55.674Z,23.50
2023-02-02T19:13:08.899Z,59.50
2023-02-02T19:18:17.376Z,45.08
2023-02-02T19:23:23.880Z,47.20
2023-02-02T19:28:31.125Z,58.55
2023-02-02T19:33:49.727Z,49.58
2023-02-02T19:38:56.513Z,31.05
2023-02-02T19:44:01.884Z,23.90
2023-02-02T19:49:12.085Z,34.88
2023-02-02T19:54:38.469Z,60.33
2023-02-02T19:59:45.981Z,72.10
2023-02-02T20:05:05.418Z,57.10
2023-02-02T20:10:19.585Z,61.03
2023-02-02T20:15:29.526Z,55.20
2023-02-02T20:20:53.017Z,34.75
2023-02-02T20:25:56.365Z,43.28
2023-02-02T20:30:58.776Z,70.28
2023-02-02T20:36:29.547Z,64.60
2023-02-02T20:41:32.188Z,59.10
2023-02-02T20:46:34.732Z,57.13
2023-02-02T20:51:40.692Z,52.45
2023-02-02T20:56:43.051Z,55.42
2023-02-02T21:07:02.800Z,34.08
2023-02-02T21:12:06.001Z,29.20
2023-02-02T21:22:25.121Z,41.95
2023-02-02T21:27:27.652Z,25.45
2023-02-02T21:32:30.159Z,32.55
2023-02-02T21:37:35.170Z,41.83
2023-02-02T21:48:20.153Z,41.17
2023-02-02T21:53:24.918Z,39.33
2023-02-02T21:58:33.318Z,25.83
2023-02-02T22:03:38.341Z,44.78
2023-02-02T22:08:41.195Z,32.53
2023-02-02T22:13:43.542Z,21.60
2023-02-02T22:18:46.244Z,31.75
2023-02-02T22:23:48.795Z,43.00
2023-02-02T22:28:51.208Z,34.15
2023-02-02T22:33:53.673Z,23.08
2023-02-02T22:38:56.038Z,19.00
2023-02-02T22:43:58.403Z,18.05
2023-02-02T22:49:01.601Z,16.75
2023-02-02T22:54:04.036Z,18.45
2023-02-02T22:59:08.229Z,19.77
2023-02-02T23:04:10.846Z,21.23
2023-02-02T23:09:13.338Z,20.08
2023-02-02T23:14:15.673Z,23.55
2023-02-02T23:19:18.127Z,31.13
2023-02-02T23:24:20.626Z,22.30
2023-02-02T23:29:23.161Z,16.05
2023-02-02T23:34:25.625Z,17.30
2023-02-02T23:39:28.034Z,11.70
2023-02-02T23:44:30.383Z,11.65
2023-02-02T23:49:33.405Z,10.95
2023-02-02T23:54:36.382Z,12.90
2023-02-02T23:59:38.848Z,12.93
